This is the latest recevied weather packets stored in our database for station/object YC2UTR-2. If no packets are shown the sender has not sent any weather packets the latest 10 day(s).
| Time | Temp. | Humidity | Pressure | Rain* | Wind** | Luminosity | Snow |
|---|---|---|---|---|---|---|---|
| 1787903278 | 31.11° C | 48% | 1015.4 hPa | - | - | - | - |
| 1787902978 | 31.11° C | 47% | 1015.5 hPa | - | - | - | - |
| 1787902678 | 31.11° C | 48% | 1015.6 hPa | - | - | - | - |
| 1787902378 | 31.11° C | 48% | 1015.5 hPa | - | - | - | - |
| 1787902078 | 31.11° C | 48% | 1015.6 hPa | - | - | - | - |
| 1787901778 | 31.67° C | 48% | 1015.7 hPa | - | - | - | - |
| 1787901478 | 31.11° C | 49% | 1015.8 hPa | - | - | - | - |
| 1787901178 | 31.11° C | 48% | 1015.9 hPa | - | - | - | - |
| 1787900878 | 31.11° C | 48% | 1015.9 hPa | - | - | - | - |
| 1787900578 | 31.11° C | 49% | 1015.9 hPa | - | - | - | - |
| 1787900278 | 31.11° C | 50% | 1016 hPa | - | - | - | - |
| 1787899978 | 31.67° C | 48% | 1016 hPa | - | - | - | - |
| 1787899678 | 31.67° C | 51% | 1016.1 hPa | - | - | - | - |
| 1787899378 | 31.67° C | 49% | 1016.2 hPa | - | - | - | - |
| 1787899078 | 31.67° C | 50% | 1016.3 hPa | - | - | - | - |
| 1787898778 | 31.67° C | 50% | 1016.3 hPa | - | - | - | - |
| 1787898478 | 31.67° C | 50% | 1016.4 hPa | - | - | - | - |
| 1787898178 | 31.11° C | 49% | 1016.5 hPa | - | - | - | - |
| 1787897878 | 31.11° C | 50% | 1016.5 hPa | - | - | - | - |
| 1787897578 | 30° C | 51% | 1016.7 hPa | - | - | - | - |
| 1787897278 | 31.11° C | 51% | 1016.7 hPa | - | - | - | - |
| 1787896978 | 30.56° C | 52% | 1016.9 hPa | - | - | - | - |
| 1787896678 | 31.11° C | 50% | 1016.9 hPa | - | - | - | - |
| 1787896378 | 31.11° C | 48% | 1017 hPa | - | - | - | - |
| 1787896078 | 31.11° C | 50% | 1017 hPa | - | - | - | - |
* Rain since midnight (hover to see other rain measurements)
** Current wind speed in m/s (hover to see current wind gust speed)